sensor_id;sensor_type;location;lat;lon;timestamp;P1;durP1;ratioP1;P2;durP2;ratioP2
18574;SDS011;9417;16.484;102.872;2023-09-07T00:01:01;7.90;;;3.75;;
18574;SDS011;9417;16.484;102.872;2023-09-07T00:03:12;6.72;;;4.20;;
18574;SDS011;9417;16.484;102.872;2023-09-07T00:05:20;8.75;;;3.95;;
18574;SDS011;9417;16.484;102.872;2023-09-07T00:07:26;13.85;;;12.13;;
18574;SDS011;9417;16.484;102.872;2023-09-07T00:09:35;16.15;;;14.45;;
18574;SDS011;9417;16.484;102.872;2023-09-07T00:11:42;13.93;;;11.77;;
18574;SDS011;9417;16.484;102.872;2023-09-07T00:13:49;8.65;;;4.35;;
18574;SDS011;9417;16.484;102.872;2023-09-07T00:15:58;14.43;;;12.93;;
18574;SDS011;9417;16.484;102.872;2023-09-07T00:18:06;14.50;;;11.82;;
18574;SDS011;9417;16.484;102.872;2023-09-07T00:20:13;20.13;;;15.10;;
18574;SDS011;9417;16.484;102.872;2023-09-07T00:22:23;17.88;;;15.27;;
18574;SDS011;9417;16.484;102.872;2023-09-07T00:24:31;13.18;;;6.45;;
18574;SDS011;9417;16.484;102.872;2023-09-07T00:26:40;12.18;;;6.68;;
18574;SDS011;9417;16.484;102.872;2023-09-07T00:28:47;12.13;;;6.07;;
18574;SDS011;9417;16.484;102.872;2023-09-07T00:30:54;15.70;;;6.85;;
18574;SDS011;9417;16.484;102.872;2023-09-07T00:33:01;11.93;;;7.90;;
18574;SDS011;9417;16.484;102.872;2023-09-07T00:35:09;18.73;;;16.80;;
18574;SDS011;9417;16.484;102.872;2023-09-07T00:37:16;9.98;;;7.22;;
18574;SDS011;9417;16.484;102.872;2023-09-07T00:39:23;12.38;;;7.50;;
18574;SDS011;9417;16.484;102.872;2023-09-07T00:41:30;12.18;;;6.70;;
18574;SDS011;9417;16.484;102.872;2023-09-07T00:43:39;9.02;;;6.20;;
18574;SDS011;9417;16.484;102.872;2023-09-07T00:45:47;8.65;;;6.15;;
18574;SDS011;9417;16.484;102.872;2023-09-07T00:47:55;9.10;;;5.43;;
18574;SDS011;9417;16.484;102.872;2023-09-07T00:50:02;7.50;;;4.70;;
18574;SDS011;9417;16.484;102.872;2023-09-07T00:52:10;8.18;;;4.72;;
18574;SDS011;9417;16.484;102.872;2023-09-07T00:54:18;5.10;;;4.22;;
18574;SDS011;9417;16.484;102.872;2023-09-07T00:56:25;7.63;;;3.80;;
18574;SDS011;9417;16.484;102.872;2023-09-07T00:58:34;4.63;;;3.10;;
18574;SDS011;9417;16.484;102.872;2023-09-07T01:00:44;3.88;;;2.75;;
18574;SDS011;9417;16.484;102.872;2023-09-07T01:02:51;4.20;;;2.70;;
18574;SDS011;9417;16.484;102.872;2023-09-07T01:04:58;4.72;;;3.33;;
18574;SDS011;9417;16.484;102.872;2023-09-07T01:07:07;3.97;;;3.00;;
18574;SDS011;9417;16.484;102.872;2023-09-07T01:09:20;3.95;;;2.85;;
18574;SDS011;9417;16.484;102.872;2023-09-07T01:11:35;8.02;;;2.85;;
18574;SDS011;9417;16.484;102.872;2023-09-07T01:13:43;5.78;;;2.63;;
18574;SDS011;9417;16.484;102.872;2023-09-07T01:15:52;5.03;;;2.83;;
18574;SDS011;9417;16.484;102.872;2023-09-07T01:17:59;5.15;;;2.45;;
18574;SDS011;9417;16.484;102.872;2023-09-07T01:20:26;4.78;;;2.80;;
18574;SDS011;9417;16.484;102.872;2023-09-07T01:22:36;4.28;;;2.65;;
18574;SDS011;9417;16.484;102.872;2023-09-07T01:24:45;3.33;;;2.97;;
18574;SDS011;9417;16.484;102.872;2023-09-07T01:26:52;3.72;;;2.97;;
18574;SDS011;9417;16.484;102.872;2023-09-07T01:29:00;9.23;;;8.52;;
18574;SDS011;9417;16.484;102.872;2023-09-07T01:31:08;8.93;;;8.07;;
18574;SDS011;9417;16.484;102.872;2023-09-07T01:33:15;4.97;;;2.80;;
18574;SDS011;9417;16.484;102.872;2023-09-07T01:35:22;4.28;;;2.85;;
18574;SDS011;9417;16.484;102.872;2023-09-07T01:37:31;3.15;;;2.80;;
18574;SDS011;9417;16.484;102.872;2023-09-07T01:39:41;3.55;;;2.60;;
18574;SDS011;9417;16.484;102.872;2023-09-07T01:41:48;6.20;;;2.80;;
18574;SDS011;9417;16.484;102.872;2023-09-07T01:43:54;4.70;;;2.53;;
18574;SDS011;9417;16.484;102.872;2023-09-07T01:46:01;9.82;;;2.70;;
18574;SDS011;9417;16.484;102.872;2023-09-07T01:48:08;4.53;;;2.50;;
18574;SDS011;9417;16.484;102.872;2023-09-07T01:50:16;3.20;;;2.70;;
18574;SDS011;9417;16.484;102.872;2023-09-07T01:52:24;4.72;;;2.70;;
18574;SDS011;9417;16.484;102.872;2023-09-07T01:54:31;3.67;;;3.05;;
18574;SDS011;9417;16.484;102.872;2023-09-07T01:56:38;4.97;;;4.38;;
18574;SDS011;9417;16.484;102.872;2023-09-07T01:58:46;6.55;;;5.80;;
18574;SDS011;9417;16.484;102.872;2023-09-07T02:00:56;6.88;;;6.18;;
18574;SDS011;9417;16.484;102.872;2023-09-07T02:03:04;8.27;;;7.47;;
18574;SDS011;9417;16.484;102.872;2023-09-07T02:05:12;8.38;;;7.50;;
18574;SDS011;9417;16.484;102.872;2023-09-07T02:07:20;7.43;;;6.13;;
18574;SDS011;9417;16.484;102.872;2023-09-07T02:09:27;6.30;;;4.90;;
18574;SDS011;9417;16.484;102.872;2023-09-07T02:11:34;6.28;;;5.38;;
18574;SDS011;9417;16.484;102.872;2023-09-07T02:13:43;7.47;;;5.38;;
18574;SDS011;9417;16.484;102.872;2023-09-07T02:15:50;7.78;;;5.55;;
18574;SDS011;9417;16.484;102.872;2023-09-07T02:17:58;13.00;;;8.43;;
18574;SDS011;9417;16.484;102.872;2023-09-07T02:20:07;9.45;;;7.35;;
18574;SDS011;9417;16.484;102.872;2023-09-07T02:22:15;4.45;;;2.97;;
18574;SDS011;9417;16.484;102.872;2023-09-07T02:24:22;5.88;;;3.13;;
18574;SDS011;9417;16.484;102.872;2023-09-07T02:26:30;4.55;;;2.60;;
18574;SDS011;9417;16.484;102.872;2023-09-07T02:28:37;11.07;;;10.18;;
18574;SDS011;9417;16.484;102.872;2023-09-07T02:30:46;3.67;;;1.75;;
18574;SDS011;9417;16.484;102.872;2023-09-07T02:32:54;4.50;;;2.70;;
18574;SDS011;9417;16.484;102.872;2023-09-07T02:35:02;4.63;;;3.20;;
18574;SDS011;9417;16.484;102.872;2023-09-07T02:37:10;4.45;;;4.00;;
18574;SDS011;9417;16.484;102.872;2023-09-07T02:39:18;5.43;;;4.93;;
18574;SDS011;9417;16.484;102.872;2023-09-07T02:41:25;7.90;;;7.30;;
18574;SDS011;9417;16.484;102.872;2023-09-07T02:43:33;8.27;;;7.57;;
18574;SDS011;9417;16.484;102.872;2023-09-07T02:45:40;9.77;;;8.88;;
18574;SDS011;9417;16.484;102.872;2023-09-07T02:47:49;9.73;;;8.90;;
18574;SDS011;9417;16.484;102.872;2023-09-07T02:49:56;12.50;;;11.50;;
18574;SDS011;9417;16.484;102.872;2023-09-07T02:52:04;11.43;;;10.43;;
18574;SDS011;9417;16.484;102.872;2023-09-07T02:54:11;10.10;;;9.10;;
18574;SDS011;9417;16.484;102.872;2023-09-07T02:56:18;12.55;;;11.45;;
18574;SDS011;9417;16.484;102.872;2023-09-07T02:58:27;12.25;;;11.05;;
18574;SDS011;9417;16.484;102.872;2023-09-07T03:00:34;9.02;;;8.27;;
18574;SDS011;9417;16.484;102.872;2023-09-07T03:02:51;9.25;;;8.45;;
18574;SDS011;9417;16.484;102.872;2023-09-07T03:04:58;7.72;;;6.97;;
18574;SDS011;9417;16.484;102.872;2023-09-07T03:07:05;7.40;;;6.70;;
18574;SDS011;9417;16.484;102.872;2023-09-07T03:09:13;5.93;;;4.88;;
18574;SDS011;9417;16.484;102.872;2023-09-07T03:11:20;5.20;;;3.63;;
18574;SDS011;9417;16.484;102.872;2023-09-07T03:13:27;5.28;;;3.60;;
18574;SDS011;9417;16.484;102.872;2023-09-07T03:15:34;3.35;;;2.70;;
18574;SDS011;9417;16.484;102.872;2023-09-07T03:17:46;2.45;;;1.90;;
18574;SDS011;9417;16.484;102.872;2023-09-07T03:19:55;2.28;;;1.25;;
18574;SDS011;9417;16.484;102.872;2023-09-07T03:22:03;2.42;;;1.20;;
18574;SDS011;9417;16.484;102.872;2023-09-07T03:24:10;1.50;;;1.30;;
18574;SDS011;9417;16.484;102.872;2023-09-07T03:26:19;1.85;;;1.38;;
18574;SDS011;9417;16.484;102.872;2023-09-07T03:28:26;2.08;;;1.40;;
18574;SDS011;9417;16.484;102.872;2023-09-07T03:30:33;2.22;;;1.40;;
18574;SDS011;9417;16.484;102.872;2023-09-07T03:32:40;1.75;;;1.30;;
18574;SDS011;9417;16.484;102.872;2023-09-07T03:34:48;1.13;;;1.02;;
18574;SDS011;9417;16.484;102.872;2023-09-07T03:36:57;1.40;;;1.05;;
18574;SDS011;9417;16.484;102.872;2023-09-07T03:39:04;1.77;;;1.17;;
18574;SDS011;9417;16.484;102.872;2023-09-07T03:41:12;2.50;;;1.80;;
18574;SDS011;9417;16.484;102.872;2023-09-07T03:43:19;3.42;;;3.13;;
18574;SDS011;9417;16.484;102.872;2023-09-07T03:45:27;5.15;;;4.45;;
18574;SDS011;9417;16.484;102.872;2023-09-07T03:47:35;6.30;;;5.68;;
18574;SDS011;9417;16.484;102.872;2023-09-07T03:49:44;7.00;;;6.40;;
18574;SDS011;9417;16.484;102.872;2023-09-07T03:51:50;4.78;;;4.38;;
18574;SDS011;9417;16.484;102.872;2023-09-07T03:54:00;3.83;;;3.17;;
18574;SDS011;9417;16.484;102.872;2023-09-07T03:56:07;2.67;;;2.30;;
18574;SDS011;9417;16.484;102.872;2023-09-07T03:58:13;2.03;;;1.80;;
18574;SDS011;9417;16.484;102.872;2023-09-07T04:00:20;2.55;;;1.92;;
18574;SDS011;9417;16.484;102.872;2023-09-07T04:02:27;1.73;;;1.33;;
18574;SDS011;9417;16.484;102.872;2023-09-07T04:04:35;1.67;;;1.20;;
18574;SDS011;9417;16.484;102.872;2023-09-07T04:06:42;1.52;;;1.00;;
18574;SDS011;9417;16.484;102.872;2023-09-07T04:08:53;0.90;;;0.90;;
18574;SDS011;9417;16.484;102.872;2023-09-07T04:11:05;0.93;;;0.80;;
18574;SDS011;9417;16.484;102.872;2023-09-07T04:13:12;1.25;;;0.93;;
18574;SDS011;9417;16.484;102.872;2023-09-07T04:15:19;1.35;;;1.00;;
18574;SDS011;9417;16.484;102.872;2023-09-07T04:17:27;1.73;;;1.00;;
18574;SDS011;9417;16.484;102.872;2023-09-07T04:19:36;1.77;;;1.00;;
18574;SDS011;9417;16.484;102.872;2023-09-07T04:21:43;12.63;;;9.52;;
18574;SDS011;9417;16.484;102.872;2023-09-07T04:23:50;4.05;;;3.22;;
18574;SDS011;9417;16.484;102.872;2023-09-07T04:26:05;1.70;;;1.60;;
18574;SDS011;9417;16.484;102.872;2023-09-07T04:28:15;2.30;;;2.00;;
18574;SDS011;9417;16.484;102.872;2023-09-07T04:30:29;1.80;;;0.90;;
18574;SDS011;9417;16.484;102.872;2023-09-07T04:32:42;1.60;;;1.50;;
18574;SDS011;9417;16.484;102.872;2023-09-07T04:35:11;3.67;;;2.67;;
18574;SDS011;9417;16.484;102.872;2023-09-07T04:37:19;1.85;;;1.50;;
18574;SDS011;9417;16.484;102.872;2023-09-07T04:39:26;1.70;;;1.60;;
18574;SDS011;9417;16.484;102.872;2023-09-07T04:41:35;1.60;;;1.50;;
18574;SDS011;9417;16.484;102.872;2023-09-07T04:43:42;2.22;;;1.98;;
18574;SDS011;9417;16.484;102.872;2023-09-07T04:45:50;2.20;;;2.00;;
18574;SDS011;9417;16.484;102.872;2023-09-07T04:47:57;2.20;;;1.40;;
18574;SDS011;9417;16.484;102.872;2023-09-07T04:50:06;1.60;;;1.30;;
18574;SDS011;9417;16.484;102.872;2023-09-07T04:52:13;1.27;;;0.90;;
18574;SDS011;9417;16.484;102.872;2023-09-07T04:54:21;1.38;;;1.10;;
18574;SDS011;9417;16.484;102.872;2023-09-07T04:56:28;2.65;;;0.90;;
18574;SDS011;9417;16.484;102.872;2023-09-07T04:58:37;1.92;;;0.90;;
18574;SDS011;9417;16.484;102.872;2023-09-07T05:00:44;0.88;;;0.80;;
18574;SDS011;9417;16.484;102.872;2023-09-07T05:02:51;0.70;;;0.60;;
18574;SDS011;9417;16.484;102.872;2023-09-07T05:04:58;1.40;;;0.80;;
18574;SDS011;9417;16.484;102.872;2023-09-07T05:07:06;0.80;;;0.68;;
18574;SDS011;9417;16.484;102.872;2023-09-07T05:09:13;1.23;;;0.80;;
18574;SDS011;9417;16.484;102.872;2023-09-07T05:11:21;0.63;;;0.57;;
18574;SDS011;9417;16.484;102.872;2023-09-07T05:13:29;1.05;;;0.60;;
18574;SDS011;9417;16.484;102.872;2023-09-07T05:15:39;0.60;;;0.55;;
18574;SDS011;9417;16.484;102.872;2023-09-07T05:17:54;0.70;;;0.50;;
18574;SDS011;9417;16.484;102.872;2023-09-07T05:20:02;0.80;;;0.50;;
18574;SDS011;9417;16.484;102.872;2023-09-07T05:22:09;0.77;;;0.57;;
18574;SDS011;9417;16.484;102.872;2023-09-07T05:24:16;2.75;;;2.65;;
18574;SDS011;9417;16.484;102.872;2023-09-07T05:26:23;2.20;;;2.10;;
18574;SDS011;9417;16.484;102.872;2023-09-07T05:28:32;2.67;;;2.50;;
18574;SDS011;9417;16.484;102.872;2023-09-07T05:30:41;1.15;;;0.82;;
18574;SDS011;9417;16.484;102.872;2023-09-07T05:32:49;9.13;;;8.68;;
18574;SDS011;9417;16.484;102.872;2023-09-07T05:34:56;8.27;;;7.88;;
18574;SDS011;9417;16.484;102.872;2023-09-07T05:37:03;2.58;;;0.70;;
18574;SDS011;9417;16.484;102.872;2023-09-07T05:39:12;1.90;;;0.68;;
18574;SDS011;9417;16.484;102.872;2023-09-07T05:41:21;1.08;;;0.80;;
18574;SDS011;9417;16.484;102.872;2023-09-07T05:43:28;1.00;;;0.70;;
18574;SDS011;9417;16.484;102.872;2023-09-07T05:45:36;0.77;;;0.50;;
18574;SDS011;9417;16.484;102.872;2023-09-07T05:47:48;0.70;;;0.60;;
18574;SDS011;9417;16.484;102.872;2023-09-07T05:49:55;2.42;;;0.65;;
18574;SDS011;9417;16.484;102.872;2023-09-07T05:52:03;0.80;;;0.70;;
18574;SDS011;9417;16.484;102.872;2023-09-07T05:54:11;1.45;;;0.80;;
18574;SDS011;9417;16.484;102.872;2023-09-07T05:56:18;1.98;;;0.80;;
18574;SDS011;9417;16.484;102.872;2023-09-07T05:58:26;1.00;;;0.60;;
18574;SDS011;9417;16.484;102.872;2023-09-07T06:00:35;22.25;;;5.45;;
18574;SDS011;9417;16.484;102.872;2023-09-07T06:02:44;1.33;;;0.80;;
18574;SDS011;9417;16.484;102.872;2023-09-07T06:04:54;1.30;;;0.98;;
18574;SDS011;9417;16.484;102.872;2023-09-07T06:07:02;2.00;;;1.27;;
18574;SDS011;9417;16.484;102.872;2023-09-07T06:09:09;1.88;;;1.30;;
18574;SDS011;9417;16.484;102.872;2023-09-07T06:11:16;16.15;;;4.80;;
18574;SDS011;9417;16.484;102.872;2023-09-07T06:13:23;7.75;;;3.13;;
18574;SDS011;9417;16.484;102.872;2023-09-07T06:15:31;4.78;;;2.20;;
18574;SDS011;9417;16.484;102.872;2023-09-07T06:17:36;3.40;;;1.90;;
18574;SDS011;9417;16.484;102.872;2023-09-07T06:19:46;1.73;;;1.40;;
18574;SDS011;9417;16.484;102.872;2023-09-07T06:21:55;2.00;;;1.48;;
18574;SDS011;9417;16.484;102.872;2023-09-07T06:24:02;1.83;;;1.52;;
18574;SDS011;9417;16.484;102.872;2023-09-07T06:26:11;2.42;;;2.22;;
18574;SDS011;9417;16.484;102.872;2023-09-07T06:28:18;2.45;;;2.28;;
18574;SDS011;9417;16.484;102.872;2023-09-07T06:30:25;1.67;;;0.90;;
18574;SDS011;9417;16.484;102.872;2023-09-07T06:32:33;1.83;;;0.70;;
18574;SDS011;9417;16.484;102.872;2023-09-07T06:34:40;1.80;;;1.70;;
18574;SDS011;9417;16.484;102.872;2023-09-07T06:36:49;1.48;;;1.30;;
18574;SDS011;9417;16.484;102.872;2023-09-07T06:38:56;1.58;;;1.42;;
18574;SDS011;9417;16.484;102.872;2023-09-07T06:41:04;1.58;;;1.48;;
18574;SDS011;9417;16.484;102.872;2023-09-07T06:43:13;2.80;;;2.60;;
18574;SDS011;9417;16.484;102.872;2023-09-07T06:45:20;3.80;;;3.50;;
18574;SDS011;9417;16.484;102.872;2023-09-07T06:47:27;2.75;;;2.53;;
18574;SDS011;9417;16.484;102.872;2023-09-07T06:49:34;0.95;;;0.77;;
18574;SDS011;9417;16.484;102.872;2023-09-07T06:51:43;1.52;;;0.70;;
18574;SDS011;9417;16.484;102.872;2023-09-07T06:53:52;2.45;;;1.00;;
18574;SDS011;9417;16.484;102.872;2023-09-07T06:56:01;1.00;;;0.70;;
18574;SDS011;9417;16.484;102.872;2023-09-07T06:58:10;0.80;;;0.80;;
18574;SDS011;9417;16.484;102.872;2023-09-07T07:00:17;0.60;;;0.60;;
18574;SDS011;9417;16.484;102.872;2023-09-07T07:02:25;3.30;;;3.10;;
18574;SDS011;9417;16.484;102.872;2023-09-07T07:04:32;3.42;;;3.22;;
18574;SDS011;9417;16.484;102.872;2023-09-07T07:06:40;3.33;;;3.13;;
18574;SDS011;9417;16.484;102.872;2023-09-07T07:08:47;1.50;;;1.40;;
18574;SDS011;9417;16.484;102.872;2023-09-07T07:10:56;2.03;;;1.52;;
18574;SDS011;9417;16.484;102.872;2023-09-07T07:13:04;1.27;;;0.98;;
18574;SDS011;9417;16.484;102.872;2023-09-07T07:15:11;2.83;;;0.95;;
18574;SDS011;9417;16.484;102.872;2023-09-07T07:17:18;0.80;;;0.80;;
18574;SDS011;9417;16.484;102.872;2023-09-07T07:19:26;1.48;;;0.90;;
18574;SDS011;9417;16.484;102.872;2023-09-07T07:21:35;2.28;;;0.93;;
18574;SDS011;9417;16.484;102.872;2023-09-07T07:23:45;2.33;;;1.23;;
18574;SDS011;9417;16.484;102.872;2023-09-07T07:25:52;1.30;;;1.15;;
18574;SDS011;9417;16.484;102.872;2023-09-07T07:28:04;3.15;;;1.40;;
18574;SDS011;9417;16.484;102.872;2023-09-07T07:32:19;1.00;;;0.80;;
18574;SDS011;9417;16.484;102.872;2023-09-07T07:34:26;0.80;;;0.70;;
18574;SDS011;9417;16.484;102.872;2023-09-07T07:36:33;1.05;;;0.93;;
18574;SDS011;9417;16.484;102.872;2023-09-07T07:38:40;2.92;;;1.20;;
18574;SDS011;9417;16.484;102.872;2023-09-07T07:40:48;1.48;;;0.90;;
18574;SDS011;9417;16.484;102.872;2023-09-07T07:42:56;2.53;;;2.30;;
18574;SDS011;9417;16.484;102.872;2023-09-07T07:45:07;5.10;;;2.60;;
18574;SDS011;9417;16.484;102.872;2023-09-07T07:47:16;2.47;;;2.30;;
18574;SDS011;9417;16.484;102.872;2023-09-07T07:49:23;3.17;;;2.97;;
18574;SDS011;9417;16.484;102.872;2023-09-07T07:51:31;2.08;;;1.95;;
18574;SDS011;9417;16.484;102.872;2023-09-07T07:53:39;2.88;;;2.50;;
18574;SDS011;9417;16.484;102.872;2023-09-07T07:55:46;2.28;;;2.17;;
18574;SDS011;9417;16.484;102.872;2023-09-07T07:57:55;2.65;;;2.40;;
18574;SDS011;9417;16.484;102.872;2023-09-07T08:00:03;4.63;;;4.43;;
18574;SDS011;9417;16.484;102.872;2023-09-07T08:02:22;4.80;;;4.40;;
18574;SDS011;9417;16.484;102.872;2023-09-07T08:04:29;4.30;;;4.10;;
18574;SDS011;9417;16.484;102.872;2023-09-07T08:06:40;4.85;;;4.55;;
18574;SDS011;9417;16.484;102.872;2023-09-07T08:08:47;4.70;;;4.50;;
18574;SDS011;9417;16.484;102.872;2023-09-07T08:10:55;4.80;;;4.55;;
18574;SDS011;9417;16.484;102.872;2023-09-07T08:13:03;2.90;;;2.60;;
18574;SDS011;9417;16.484;102.872;2023-09-07T08:15:12;0.90;;;0.80;;
18574;SDS011;9417;16.484;102.872;2023-09-07T08:17:18;0.80;;;0.80;;
18574;SDS011;9417;16.484;102.872;2023-09-07T08:19:26;2.30;;;0.90;;
18574;SDS011;9417;16.484;102.872;2023-09-07T08:21:35;1.05;;;0.80;;
18574;SDS011;9417;16.484;102.872;2023-09-07T08:23:42;0.90;;;0.80;;
18574;SDS011;9417;16.484;102.872;2023-09-07T08:25:51;1.48;;;0.90;;
18574;SDS011;9417;16.484;102.872;2023-09-07T08:28:00;1.25;;;0.75;;
18574;SDS011;9417;16.484;102.872;2023-09-07T08:30:09;1.15;;;0.90;;
18574;SDS011;9417;16.484;102.872;2023-09-07T08:32:19;0.80;;;0.75;;
18574;SDS011;9417;16.484;102.872;2023-09-07T08:34:27;1.17;;;0.70;;
18574;SDS011;9417;16.484;102.872;2023-09-07T08:36:35;2.30;;;0.98;;
18574;SDS011;9417;16.484;102.872;2023-09-07T08:38:42;1.17;;;1.08;;
18574;SDS011;9417;16.484;102.872;2023-09-07T08:40:49;1.35;;;0.70;;
18574;SDS011;9417;16.484;102.872;2023-09-07T08:42:57;1.35;;;0.82;;
18574;SDS011;9417;16.484;102.872;2023-09-07T08:45:07;0.90;;;0.70;;
18574;SDS011;9417;16.484;102.872;2023-09-07T08:47:17;6.07;;;5.78;;
18574;SDS011;9417;16.484;102.872;2023-09-07T08:49:25;5.93;;;5.53;;
18574;SDS011;9417;16.484;102.872;2023-09-07T08:51:34;5.97;;;5.55;;
18574;SDS011;9417;16.484;102.872;2023-09-07T08:53:41;5.90;;;5.60;;
18574;SDS011;9417;16.484;102.872;2023-09-07T08:55:50;5.70;;;5.40;;
18574;SDS011;9417;16.484;102.872;2023-09-07T08:57:57;5.03;;;4.72;;
18574;SDS011;9417;16.484;102.872;2023-09-07T09:00:05;4.57;;;4.35;;
18574;SDS011;9417;16.484;102.872;2023-09-07T09:02:22;5.03;;;4.70;;
18574;SDS011;9417;16.484;102.872;2023-09-07T09:04:29;4.80;;;4.50;;
18574;SDS011;9417;16.484;102.872;2023-09-07T09:06:37;4.47;;;4.18;;
18574;SDS011;9417;16.484;102.872;2023-09-07T09:08:44;4.10;;;3.90;;
18574;SDS011;9417;16.484;102.872;2023-09-07T09:10:59;4.28;;;3.97;;
18574;SDS011;9417;16.484;102.872;2023-09-07T09:13:07;4.10;;;3.90;;
18574;SDS011;9417;16.484;102.872;2023-09-07T09:15:15;1.88;;;1.77;;
18574;SDS011;9417;16.484;102.872;2023-09-07T09:17:24;1.75;;;1.00;;
18574;SDS011;9417;16.484;102.872;2023-09-07T09:19:31;1.05;;;0.90;;
18574;SDS011;9417;16.484;102.872;2023-09-07T09:21:39;3.00;;;2.67;;
18574;SDS011;9417;16.484;102.872;2023-09-07T09:23:47;3.03;;;2.72;;
18574;SDS011;9417;16.484;102.872;2023-09-07T09:25:55;2.47;;;2.28;;
18574;SDS011;9417;16.484;102.872;2023-09-07T09:28:03;2.63;;;2.30;;
18574;SDS011;9417;16.484;102.872;2023-09-07T09:30:12;2.70;;;2.10;;
18574;SDS011;9417;16.484;102.872;2023-09-07T09:32:20;2.22;;;2.03;;
18574;SDS011;9417;16.484;102.872;2023-09-07T09:34:32;2.20;;;2.00;;
18574;SDS011;9417;16.484;102.872;2023-09-07T09:36:41;3.97;;;3.03;;
18574;SDS011;9417;16.484;102.872;2023-09-07T09:38:49;2.40;;;2.20;;
18574;SDS011;9417;16.484;102.872;2023-09-07T09:40:57;2.50;;;2.30;;
18574;SDS011;9417;16.484;102.872;2023-09-07T09:43:04;3.08;;;1.38;;
18574;SDS011;9417;16.484;102.872;2023-09-07T09:45:12;2.67;;;1.30;;
18574;SDS011;9417;16.484;102.872;2023-09-07T09:47:17;2.78;;;2.58;;
18574;SDS011;9417;16.484;102.872;2023-09-07T09:49:27;3.97;;;2.80;;
18574;SDS011;9417;16.484;102.872;2023-09-07T09:51:36;3.30;;;2.92;;
18574;SDS011;9417;16.484;102.872;2023-09-07T09:53:46;4.40;;;1.35;;
18574;SDS011;9417;16.484;102.872;2023-09-07T09:55:53;1.48;;;1.10;;
18574;SDS011;9417;16.484;102.872;2023-09-07T09:58:01;1.92;;;1.10;;
18574;SDS011;9417;16.484;102.872;2023-09-07T10:00:09;2.03;;;1.17;;
18574;SDS011;9417;16.484;102.872;2023-09-07T10:02:29;1.48;;;0.95;;
18574;SDS011;9417;16.484;102.872;2023-09-07T10:04:37;1.52;;;0.90;;
18574;SDS011;9417;16.484;102.872;2023-09-07T10:06:55;1.52;;;1.00;;
18574;SDS011;9417;16.484;102.872;2023-09-07T10:09:05;2.22;;;1.20;;
18574;SDS011;9417;16.484;102.872;2023-09-07T10:11:14;2.85;;;1.00;;
18574;SDS011;9417;16.484;102.872;2023-09-07T10:13:29;1.85;;;1.00;;
18574;SDS011;9417;16.484;102.872;2023-09-07T10:15:37;1.73;;;1.00;;
18574;SDS011;9417;16.484;102.872;2023-09-07T10:17:44;1.48;;;1.00;;
18574;SDS011;9417;16.484;102.872;2023-09-07T10:20:01;1.30;;;1.00;;
18574;SDS011;9417;16.484;102.872;2023-09-07T10:22:12;1.70;;;1.00;;
18574;SDS011;9417;16.484;102.872;2023-09-07T10:24:28;2.03;;;1.20;;
18574;SDS011;9417;16.484;102.872;2023-09-07T10:26:39;1.30;;;1.00;;
18574;SDS011;9417;16.484;102.872;2023-09-07T10:28:46;2.15;;;1.20;;
18574;SDS011;9417;16.484;102.872;2023-09-07T10:31:04;3.53;;;1.13;;
18574;SDS011;9417;16.484;102.872;2023-09-07T10:33:19;1.65;;;1.15;;
18574;SDS011;9417;16.484;102.872;2023-09-07T10:35:25;1.65;;;1.13;;
18574;SDS011;9417;16.484;102.872;2023-09-07T10:37:35;2.20;;;1.30;;
18574;SDS011;9417;16.484;102.872;2023-09-07T10:39:43;2.85;;;1.63;;
18574;SDS011;9417;16.484;102.872;2023-09-07T10:41:51;2.92;;;1.55;;
18574;SDS011;9417;16.484;102.872;2023-09-07T10:43:58;2.45;;;1.63;;
18574;SDS011;9417;16.484;102.872;2023-09-07T10:46:06;3.15;;;1.75;;
18574;SDS011;9417;16.484;102.872;2023-09-07T10:48:13;3.83;;;1.70;;
18574;SDS011;9417;16.484;102.872;2023-09-07T10:50:20;2.53;;;1.45;;
18574;SDS011;9417;16.484;102.872;2023-09-07T10:52:28;3.28;;;1.85;;
18574;SDS011;9417;16.484;102.872;2023-09-07T10:54:37;5.05;;;1.70;;
18574;SDS011;9417;16.484;102.872;2023-09-07T10:56:44;3.22;;;1.65;;
18574;SDS011;9417;16.484;102.872;2023-09-07T10:58:53;2.58;;;1.88;;
18574;SDS011;9417;16.484;102.872;2023-09-07T11:01:00;2.92;;;2.03;;
18574;SDS011;9417;16.484;102.872;2023-09-07T11:03:09;3.85;;;2.03;;
18574;SDS011;9417;16.484;102.872;2023-09-07T11:05:18;2.85;;;1.80;;
18574;SDS011;9417;16.484;102.872;2023-09-07T11:07:26;3.83;;;1.60;;
18574;SDS011;9417;16.484;102.872;2023-09-07T11:09:33;3.65;;;1.80;;
18574;SDS011;9417;16.484;102.872;2023-09-07T11:11:48;3.92;;;2.20;;
18574;SDS011;9417;16.484;102.872;2023-09-07T11:13:57;8.73;;;8.10;;
18574;SDS011;9417;16.484;102.872;2023-09-07T11:16:06;8.30;;;7.57;;
18574;SDS011;9417;16.484;102.872;2023-09-07T11:18:19;3.22;;;1.98;;
18574;SDS011;9417;16.484;102.872;2023-09-07T11:20:26;3.35;;;1.83;;
18574;SDS011;9417;16.484;102.872;2023-09-07T11:22:33;4.47;;;2.17;;
18574;SDS011;9417;16.484;102.872;2023-09-07T11:25:01;3.47;;;2.10;;
18574;SDS011;9417;16.484;102.872;2023-09-07T11:27:11;2.58;;;2.08;;
18574;SDS011;9417;16.484;102.872;2023-09-07T11:29:18;3.60;;;2.30;;
18574;SDS011;9417;16.484;102.872;2023-09-07T11:31:25;4.35;;;2.20;;
18574;SDS011;9417;16.484;102.872;2023-09-07T11:33:33;3.53;;;2.00;;
18574;SDS011;9417;16.484;102.872;2023-09-07T11:35:40;3.95;;;2.13;;
18574;SDS011;9417;16.484;102.872;2023-09-07T11:37:51;3.53;;;2.40;;
18574;SDS011;9417;16.484;102.872;2023-09-07T11:39:58;3.85;;;2.40;;
18574;SDS011;9417;16.484;102.872;2023-09-07T11:42:08;4.68;;;2.33;;
18574;SDS011;9417;16.484;102.872;2023-09-07T11:44:17;6.57;;;2.70;;
18574;SDS011;9417;16.484;102.872;2023-09-07T11:46:24;8.20;;;2.47;;
18574;SDS011;9417;16.484;102.872;2023-09-07T11:48:31;4.20;;;2.38;;
18574;SDS011;9417;16.484;102.872;2023-09-07T11:50:39;5.22;;;2.58;;
18574;SDS011;9417;16.484;102.872;2023-09-07T11:52:46;6.88;;;2.72;;
18574;SDS011;9417;16.484;102.872;2023-09-07T11:54:53;5.85;;;2.80;;
18574;SDS011;9417;16.484;102.872;2023-09-07T11:57:00;5.40;;;2.58;;
18574;SDS011;9417;16.484;102.872;2023-09-07T11:59:09;4.88;;;2.80;;
18574;SDS011;9417;16.484;102.872;2023-09-07T12:01:17;6.80;;;2.72;;
18574;SDS011;9417;16.484;102.872;2023-09-07T12:03:24;8.82;;;2.92;;
18574;SDS011;9417;16.484;102.872;2023-09-07T12:05:34;7.32;;;2.83;;
18574;SDS011;9417;16.484;102.872;2023-09-07T12:07:42;4.00;;;2.75;;
18574;SDS011;9417;16.484;102.872;2023-09-07T12:09:49;5.82;;;3.13;;
18574;SDS011;9417;16.484;102.872;2023-09-07T12:11:59;9.95;;;3.67;;
18574;SDS011;9417;16.484;102.872;2023-09-07T12:14:09;5.68;;;2.80;;
18574;SDS011;9417;16.484;102.872;2023-09-07T12:16:16;5.70;;;3.00;;
18574;SDS011;9417;16.484;102.872;2023-09-07T12:18:23;5.25;;;3.50;;
18574;SDS011;9417;16.484;102.872;2023-09-07T12:20:32;7.95;;;3.45;;
18574;SDS011;9417;16.484;102.872;2023-09-07T12:22:40;7.88;;;3.55;;
18574;SDS011;9417;16.484;102.872;2023-09-07T12:24:46;8.07;;;4.20;;
18574;SDS011;9417;16.484;102.872;2023-09-07T12:27:12;7.25;;;4.13;;
18574;SDS011;9417;16.484;102.872;2023-09-07T12:29:20;6.65;;;3.78;;
18574;SDS011;9417;16.484;102.872;2023-09-07T12:31:28;7.00;;;3.20;;
18574;SDS011;9417;16.484;102.872;2023-09-07T12:33:35;6.00;;;3.35;;
18574;SDS011;9417;16.484;102.872;2023-09-07T12:35:43;5.15;;;3.53;;
18574;SDS011;9417;16.484;102.872;2023-09-07T12:37:50;7.45;;;3.80;;
18574;SDS011;9417;16.484;102.872;2023-09-07T12:39:58;8.85;;;4.20;;
18574;SDS011;9417;16.484;102.872;2023-09-07T12:42:05;8.70;;;4.32;;
18574;SDS011;9417;16.484;102.872;2023-09-07T12:44:13;7.68;;;3.90;;